createdAt,value
2023-02-05T00:02:02.844Z,98066.50
2023-02-05T00:04:29.334Z,98066.00
2023-02-05T00:06:55.750Z,98061.97
2023-02-05T00:09:22.410Z,98067.16
2023-02-05T00:11:48.856Z,98057.31
2023-02-05T00:14:15.257Z,98067.66
2023-02-05T00:16:41.717Z,98066.00
2023-02-05T00:19:08.217Z,98054.00
2023-02-05T00:21:34.706Z,98069.19
2023-02-05T00:24:01.174Z,98089.97
2023-02-05T00:26:27.693Z,98072.03
2023-02-05T00:28:54.598Z,98077.50
2023-02-05T00:31:21.553Z,98078.94
2023-02-05T00:33:48.321Z,98076.56
2023-02-05T00:36:15.003Z,98085.19
2023-02-05T00:38:41.945Z,98079.19
2023-02-05T00:41:08.581Z,98079.91
2023-02-05T00:43:35.153Z,98087.03
2023-02-05T00:46:01.912Z,98084.72
2023-02-05T00:48:28.416Z,98081.19
2023-02-05T00:50:54.870Z,98081.94
2023-02-05T00:53:21.557Z,98081.94
2023-02-05T00:55:47.979Z,98092.06
2023-02-05T00:58:14.490Z,98081.00
2023-02-05T01:00:40.909Z,98083.66
2023-02-05T01:03:07.427Z,98081.13
2023-02-05T01:05:34.663Z,98071.44
2023-02-05T01:08:01.473Z,98077.66
2023-02-05T01:10:27.955Z,98075.16
2023-02-05T01:12:54.363Z,98077.75
2023-02-05T01:15:20.867Z,98072.88
2023-02-05T01:17:47.342Z,98072.88
2023-02-05T01:20:14.080Z,98070.50
2023-02-05T01:22:40.527Z,98064.56
2023-02-05T01:25:07.073Z,98059.53
2023-02-05T01:27:33.808Z,98064.69
2023-02-05T01:30:00.324Z,98070.50
2023-02-05T01:32:27.906Z,98072.25
2023-02-05T01:34:54.347Z,98076.53
2023-02-05T01:37:20.856Z,98076.44
2023-02-05T01:39:47.287Z,98064.44
2023-02-05T01:42:18.140Z,98070.38
2023-02-05T01:44:44.722Z,98065.38
2023-02-05T01:47:11.148Z,98066.13
2023-02-05T01:49:39.031Z,98057.66
2023-02-05T01:52:06.884Z,98062.59
2023-02-05T01:54:33.832Z,98059.31
2023-02-05T01:57:07.496Z,98056.91
2023-02-05T01:59:34.429Z,98047.63
2023-02-05T02:02:00.929Z,98050.78
2023-02-05T02:04:40.717Z,98051.66
2023-02-05T02:07:09.707Z,98049.16
2023-02-05T02:09:36.327Z,98045.78
2023-02-05T02:12:02.857Z,98042.59
2023-02-05T02:14:29.574Z,98045.00
2023-02-05T02:16:56.193Z,98044.25
2023-02-05T02:19:45.885Z,98045.88
2023-02-05T02:22:27.704Z,98045.97
2023-02-05T02:24:54.352Z,98042.41
2023-02-05T02:27:37.845Z,98037.25
2023-02-05T02:30:07.301Z,98034.81
2023-02-05T02:32:41.020Z,98043.34
2023-02-05T02:35:10.010Z,98039.41
2023-02-05T02:37:37.601Z,98055.50
2023-02-05T02:40:07.209Z,98047.16
2023-02-05T02:42:34.825Z,98037.72
2023-02-05T02:45:01.601Z,98049.63
2023-02-05T02:47:51.146Z,98041.56
2023-02-05T02:50:19.406Z,98056.72
2023-02-05T02:52:46.138Z,98052.69
2023-02-05T02:55:12.990Z,98061.28
2023-02-05T02:57:39.836Z,98055.25
2023-02-05T03:00:09.231Z,98061.28
2023-02-05T03:02:35.692Z,98060.63
2023-02-05T03:05:03.318Z,98069.28
2023-02-05T03:07:31.745Z,98045.34
2023-02-05T03:10:04.623Z,98060.69
2023-02-05T03:12:31.465Z,98058.03
2023-02-05T03:14:58.107Z,98060.56
2023-02-05T03:17:24.551Z,98056.44
2023-02-05T03:19:52.535Z,98064.81
2023-02-05T03:22:18.953Z,98067.13
2023-02-05T03:24:45.375Z,98060.25
2023-02-05T03:27:11.809Z,98059.69
2023-02-05T03:29:39.210Z,98057.91
2023-02-05T03:32:05.620Z,98060.78
2023-02-05T03:34:38.170Z,98073.34
2023-02-05T03:37:13.997Z,98058.69
2023-02-05T03:39:55.731Z,98063.91
2023-02-05T03:42:27.478Z,98060.66
2023-02-05T03:45:03.135Z,98063.03
2023-02-05T03:47:29.785Z,98060.56
2023-02-05T03:49:59.302Z,98063.16
2023-02-05T03:52:27.592Z,98054.56
2023-02-05T03:55:03.178Z,98074.03
2023-02-05T03:57:29.748Z,98051.47
2023-02-05T03:59:56.202Z,98059.34
2023-02-05T04:02:23.018Z,98060.06
2023-02-05T04:04:49.520Z,98068.66
2023-02-05T04:07:15.994Z,98063.72
2023-02-05T04:09:42.614Z,98063.91
2023-02-05T04:12:09.523Z,98058.88
2023-02-05T04:14:35.990Z,98060.56
2023-02-05T04:17:03.170Z,98067.31
2023-02-05T04:19:29.664Z,98064.59
2023-02-05T04:21:56.169Z,98070.72
2023-02-05T04:24:22.620Z,98074.09
2023-02-05T04:26:50.158Z,98068.97
2023-02-05T04:29:16.671Z,98055.59
2023-02-05T04:31:43.181Z,98054.84
2023-02-05T04:34:09.638Z,98050.63
2023-02-05T04:36:37.474Z,98060.78
2023-02-05T04:39:04.094Z,98064.22
2023-02-05T04:41:30.511Z,98070.81
2023-02-05T04:43:56.976Z,98054.75
2023-02-05T04:46:23.461Z,98057.25
2023-02-05T04:48:49.941Z,98052.22
2023-02-05T04:51:17.271Z,98052.91
2023-02-05T04:53:43.750Z,98056.47
2023-02-05T04:56:14.264Z,98059.91
2023-02-05T04:58:40.831Z,98063.25
2023-02-05T05:01:25.611Z,98067.56
2023-02-05T05:03:52.088Z,98061.63
2023-02-05T05:06:18.703Z,98079.41
2023-02-05T05:08:45.174Z,98091.34
2023-02-05T05:11:15.565Z,98100.66
2023-02-05T05:13:42.006Z,98102.44
2023-02-05T05:16:08.590Z,98095.97
2023-02-05T05:18:35.265Z,98108.72
2023-02-05T05:21:01.752Z,98102.94
2023-02-05T05:23:28.280Z,98117.31
2023-02-05T05:25:54.704Z,98120.69
2023-02-05T05:28:21.278Z,98124.84
2023-02-05T05:30:47.784Z,98129.13
2023-02-05T05:33:14.279Z,98130.78
2023-02-05T05:35:40.748Z,98129.06
2023-02-05T05:38:07.262Z,98127.28
2023-02-05T05:40:52.326Z,98133.94
2023-02-05T05:43:38.005Z,98134.81
2023-02-05T05:46:04.612Z,98143.34
2023-02-05T05:48:31.178Z,98144.19
2023-02-05T05:50:57.796Z,98156.06
2023-02-05T05:53:24.264Z,98154.38
2023-02-05T05:55:50.688Z,98159.47
2023-02-05T05:58:17.143Z,98161.94
2023-02-05T06:00:43.563Z,98156.13
2023-02-05T06:03:10.376Z,98170.41
2023-02-05T06:05:36.963Z,98171.97
2023-02-05T06:08:03.537Z,98166.13
2023-02-05T06:10:30.466Z,98178.84
2023-02-05T06:12:57.806Z,98179.78
2023-02-05T06:15:24.768Z,98180.72
2023-02-05T06:17:51.228Z,98181.44
2023-02-05T06:20:17.787Z,98186.41
2023-02-05T06:22:44.266Z,98188.25
2023-02-05T06:25:10.797Z,98200.91
2023-02-05T06:27:37.328Z,98199.31
2023-02-05T06:30:04.476Z,98209.50
2023-02-05T06:32:31.115Z,98208.50
2023-02-05T06:34:57.572Z,98209.41
2023-02-05T06:37:46.213Z,98213.69
2023-02-05T06:40:13.831Z,98211.91
2023-02-05T06:42:40.262Z,98213.59
2023-02-05T06:45:06.975Z,98210.97
2023-02-05T06:47:40.777Z,98199.84
2023-02-05T06:50:07.300Z,98209.28
2023-02-05T06:52:33.747Z,98210.91
2023-02-05T06:55:00.320Z,98211.69
2023-02-05T06:57:26.770Z,98214.34
2023-02-05T06:59:53.218Z,98215.22
2023-02-05T07:02:19.680Z,98218.63
2023-02-05T07:04:46.192Z,98207.56
2023-02-05T07:07:13.680Z,98205.00
2023-02-05T07:09:40.234Z,98203.13
2023-02-05T07:12:06.886Z,98205.38
2023-02-05T07:14:36.671Z,98211.41
2023-02-05T07:17:03.146Z,98204.53
2023-02-05T07:19:29.619Z,98214.72
2023-02-05T07:21:56.041Z,98219.63
2023-02-05T07:24:22.539Z,98214.44
2023-02-05T07:26:48.958Z,98219.56
2023-02-05T07:29:15.398Z,98220.47
2023-02-05T07:31:41.939Z,98222.84
2023-02-05T07:34:08.601Z,98219.44
2023-02-05T07:36:35.373Z,98219.53
2023-02-05T07:39:01.838Z,98226.28
2023-02-05T07:41:28.332Z,98228.63
2023-02-05T07:43:54.831Z,98231.78
2023-02-05T07:46:21.564Z,98226.31
2023-02-05T07:48:48.172Z,98229.69
2023-02-05T07:51:21.745Z,98233.06
2023-02-05T07:53:48.289Z,98233.97
2023-02-05T07:56:15.752Z,98230.63
2023-02-05T07:58:42.356Z,98239.03
2023-02-05T08:01:08.920Z,98235.75
2023-02-05T08:03:35.557Z,98239.03
2023-02-05T08:06:05.760Z,98235.50
2023-02-05T08:08:32.218Z,98246.41
2023-02-05T08:10:59.551Z,98252.41
2023-02-05T08:13:26.110Z,98256.66
2023-02-05T08:15:52.558Z,98260.91
2023-02-05T08:18:19.017Z,98263.34
2023-02-05T08:20:49.706Z,98270.19
2023-02-05T08:23:16.191Z,98280.34
2023-02-05T08:25:42.792Z,98277.63
2023-02-05T08:28:09.363Z,98271.47
2023-02-05T08:30:35.862Z,98274.97
2023-02-05T08:33:02.348Z,98276.50
2023-02-05T08:35:28.803Z,98279.75
2023-02-05T08:37:55.242Z,98273.00
2023-02-05T08:40:21.925Z,98291.66
2023-02-05T08:42:53.705Z,98283.94
2023-02-05T08:45:20.204Z,98286.38
2023-02-05T08:47:46.708Z,98287.25
2023-02-05T08:50:13.531Z,98289.00
2023-02-05T08:52:42.328Z,98295.09
2023-02-05T08:55:09.268Z,98299.25
2023-02-05T08:57:36.165Z,98302.78
2023-02-05T09:00:04.945Z,98302.13
2023-02-05T09:02:32.303Z,98313.06
2023-02-05T09:05:08.007Z,98312.16
2023-02-05T09:07:35.119Z,98312.88
2023-02-05T09:10:01.771Z,98307.75
2023-02-05T09:12:28.432Z,98302.69
2023-02-05T09:14:59.011Z,98295.09
2023-02-05T09:17:25.748Z,98293.16
2023-02-05T09:19:52.198Z,98295.09
2023-02-05T09:22:18.980Z,98287.34
2023-02-05T09:24:45.612Z,98297.53
2023-02-05T09:27:14.399Z,98300.22
2023-02-05T09:29:41.276Z,98291.00
2023-02-05T09:32:07.980Z,98298.66
2023-02-05T09:34:34.520Z,98295.97
2023-02-05T09:37:00.978Z,98299.22
2023-02-05T09:40:02.295Z,98297.41
2023-02-05T09:42:34.337Z,98297.03
2023-02-05T09:45:03.993Z,98297.59
2023-02-05T09:47:35.609Z,98306.84
2023-02-05T09:50:15.340Z,98304.22
2023-02-05T09:52:47.643Z,98305.09
2023-02-05T09:55:19.586Z,98297.34
2023-02-05T09:57:46.138Z,98308.41
2023-02-05T10:00:24.311Z,98300.28
2023-02-05T10:03:12.704Z,98299.34
2023-02-05T10:06:05.497Z,98298.53
2023-02-05T10:08:51.643Z,98297.34
2023-02-05T10:11:28.858Z,98295.88
2023-02-05T10:14:02.649Z,98294.38
2023-02-05T10:16:58.628Z,98286.53
2023-02-05T10:19:40.096Z,98280.88
2023-02-05T10:22:15.214Z,98286.06
2023-02-05T10:24:47.635Z,98285.97
2023-02-05T10:27:20.880Z,98279.25
2023-02-05T10:29:50.590Z,98272.72
2023-02-05T10:32:20.950Z,98273.03
2023-02-05T10:34:56.759Z,98281.66
2023-02-05T10:37:43.458Z,98265.50
2023-02-05T10:40:14.230Z,98272.13
2023-02-05T10:42:48.064Z,98277.84
2023-02-05T10:45:16.838Z,98270.34
2023-02-05T10:47:53.755Z,98268.72
2023-02-05T10:50:25.586Z,98269.66
2023-02-05T10:52:52.046Z,98257.19
2023-02-05T10:55:18.744Z,98256.56
2023-02-05T10:57:45.244Z,98262.00
2023-02-05T11:00:21.721Z,98269.09
2023-02-05T11:02:49.986Z,98257.44
2023-02-05T11:05:24.636Z,98264.44
2023-02-05T11:07:52.046Z,98256.72
2023-02-05T11:10:19.453Z,98258.59
2023-02-05T11:12:50.324Z,98256.13
2023-02-05T11:15:22.915Z,98256.84
2023-02-05T11:17:53.205Z,98250.16
2023-02-05T11:20:19.662Z,98254.34
2023-02-05T11:22:46.365Z,98256.72
2023-02-05T11:25:16.915Z,98248.44
2023-02-05T11:27:50.419Z,98252.56
2023-02-05T11:30:52.037Z,98260.97
2023-02-05T11:33:21.741Z,98249.03
2023-02-05T11:35:52.520Z,98248.75
2023-02-05T11:38:29.880Z,98246.13
2023-02-05T11:41:17.897Z,98249.16
2023-02-05T11:43:50.978Z,98248.84
2023-02-05T11:46:18.985Z,98237.47
2023-02-05T11:49:01.587Z,98243.28
2023-02-05T11:51:29.448Z,98248.69
2023-02-05T11:53:56.733Z,98233.66
2023-02-05T11:56:25.342Z,98232.47
2023-02-05T11:59:15.465Z,98233.78
2023-02-05T12:01:43.369Z,98234.56
2023-02-05T12:04:09.817Z,98235.50
2023-02-05T12:06:55.113Z,98216.53
2023-02-05T12:09:22.363Z,98208.44
2023-02-05T12:12:21.561Z,98220.72
2023-02-05T12:14:57.019Z,98217.06
2023-02-05T12:17:26.932Z,98207.84
2023-02-05T12:19:53.388Z,98212.91
2023-02-05T12:22:24.047Z,98209.53
2023-02-05T12:24:50.476Z,98213.78
2023-02-05T12:27:32.292Z,98214.00
2023-02-05T12:30:19.096Z,98213.72
2023-02-05T12:32:54.882Z,98211.72
2023-02-05T12:35:24.411Z,98206.72
2023-02-05T12:38:00.114Z,98197.16
2023-02-05T12:40:33.013Z,98209.47
2023-02-05T12:43:02.555Z,98202.09
2023-02-05T12:45:32.976Z,98211.38
2023-02-05T12:48:18.459Z,98214.56
2023-02-05T12:50:57.721Z,98203.41
2023-02-05T12:53:43.543Z,98213.41
2023-02-05T12:56:13.111Z,98224.03
2023-02-05T12:58:43.624Z,98224.88
2023-02-05T13:01:14.660Z,98231.94
2023-02-05T13:03:42.677Z,98234.91
2023-02-05T13:06:10.537Z,98231.78
2023-02-05T13:08:43.181Z,98222.66
2023-02-05T13:11:15.797Z,98231.41
2023-02-05T13:13:48.041Z,98224.69
2023-02-05T13:16:16.047Z,98229.03
2023-02-05T13:18:43.531Z,98231.56
2023-02-05T13:21:35.318Z,98226.63
2023-02-05T13:24:43.578Z,98229.41
2023-02-05T13:27:44.938Z,98225.50
2023-02-05T13:30:14.265Z,98219.03
2023-02-05T13:32:40.753Z,98218.53
2023-02-05T13:35:07.998Z,98222.88
2023-02-05T13:37:41.776Z,98215.38
2023-02-05T13:40:28.478Z,98217.19
2023-02-05T13:42:54.889Z,98223.09
2023-02-05T13:45:24.445Z,98220.53
2023-02-05T13:47:50.887Z,98230.78
2023-02-05T13:50:26.577Z,98219.72
2023-02-05T13:52:53.100Z,98219.66
2023-02-05T13:55:22.531Z,98210.41
2023-02-05T13:58:05.978Z,98220.16
2023-02-05T14:00:32.409Z,98233.13
2023-02-05T14:02:58.870Z,98235.03
2023-02-05T14:05:29.155Z,98225.88
2023-02-05T14:07:57.914Z,98237.69
2023-02-05T14:10:25.620Z,98235.88
2023-02-05T14:12:52.235Z,98231.75
2023-02-05T14:15:19.732Z,98235.28
2023-02-05T14:17:46.189Z,98233.56
2023-02-05T14:20:21.773Z,98239.66
2023-02-05T14:22:48.269Z,98226.06
2023-02-05T14:25:33.946Z,98222.78
2023-02-05T14:28:01.203Z,98235.50
2023-02-05T14:30:30.896Z,98224.50
2023-02-05T14:33:00.997Z,98237.31
2023-02-05T14:35:38.189Z,98243.22
2023-02-05T14:38:22.578Z,98231.47
2023-02-05T14:41:15.425Z,98243.22
2023-02-05T14:43:43.537Z,98247.44
2023-02-05T14:46:19.198Z,98238.97
2023-02-05T14:48:46.173Z,98241.47
2023-02-05T14:51:24.351Z,98248.38
2023-02-05T14:53:55.443Z,98253.63
2023-02-05T14:56:31.843Z,98251.28
2023-02-05T14:58:59.770Z,98244.66
2023-02-05T15:01:35.670Z,98249.69
2023-02-05T15:04:02.837Z,98246.34
2023-02-05T15:06:29.585Z,98247.25
2023-02-05T15:09:01.936Z,98244.75
2023-02-05T15:11:47.256Z,98237.94
2023-02-05T15:14:20.114Z,98239.59
2023-02-05T15:17:06.850Z,98247.38
2023-02-05T15:19:33.630Z,98253.31
2023-02-05T15:22:00.080Z,98239.78
2023-02-05T15:24:27.104Z,98247.47
2023-02-05T15:26:55.607Z,98239.16
2023-02-05T15:29:29.588Z,98244.28
2023-02-05T15:31:56.742Z,98242.72
2023-02-05T15:34:28.263Z,98242.00
2023-02-05T15:37:14.941Z,98244.69
2023-02-05T15:40:01.345Z,98242.13
2023-02-05T15:42:38.423Z,98238.81
2023-02-05T15:45:24.315Z,98232.97
2023-02-05T15:48:11.033Z,98240.56
2023-02-05T15:50:37.507Z,98238.78
2023-02-05T15:53:35.141Z,98248.16
2023-02-05T15:56:10.916Z,98250.09
2023-02-05T15:58:37.826Z,98249.25
2023-02-05T16:01:04.319Z,98251.09
2023-02-05T16:03:32.564Z,98250.25
2023-02-05T16:05:59.246Z,98259.56
2023-02-05T16:08:28.199Z,98263.75
2023-02-05T16:10:57.724Z,98269.66
2023-02-05T16:13:25.297Z,98271.47
2023-02-05T16:16:01.147Z,98278.91
2023-02-05T16:18:27.775Z,98279.72
2023-02-05T16:20:55.557Z,98276.38
2023-02-05T16:23:30.346Z,98287.41
2023-02-05T16:26:04.129Z,98295.97
2023-02-05T16:28:37.920Z,98290.13
2023-02-05T16:31:04.686Z,98291.06
2023-02-05T16:33:38.809Z,98286.06
2023-02-05T16:36:06.219Z,98294.44
2023-02-05T16:38:32.727Z,98301.22
2023-02-05T16:40:59.592Z,98297.81
2023-02-05T16:43:30.322Z,98302.84
2023-02-05T16:45:56.773Z,98310.44
2023-02-05T16:48:24.356Z,98311.34
2023-02-05T16:50:50.958Z,98315.63
2023-02-05T16:53:21.746Z,98326.59
2023-02-05T16:55:48.247Z,98329.84
2023-02-05T16:58:21.694Z,98338.28
2023-02-05T17:00:58.013Z,98340.94
2023-02-05T17:03:25.966Z,98344.28
2023-02-05T17:05:53.209Z,98351.94
2023-02-05T17:08:23.778Z,98344.41
2023-02-05T17:10:54.228Z,98341.88
2023-02-05T17:13:28.314Z,98344.41
2023-02-05T17:15:55.043Z,98341.88
2023-02-05T17:18:22.692Z,98338.53
2023-02-05T17:20:52.185Z,98335.16
2023-02-05T17:23:18.692Z,98335.22
2023-02-05T17:25:45.117Z,98325.91
2023-02-05T17:28:14.545Z,98323.41
2023-02-05T17:30:41.744Z,98323.41
2023-02-05T17:33:08.787Z,98325.94
2023-02-05T17:35:35.803Z,98336.06
2023-02-05T17:38:02.484Z,98332.72
2023-02-05T17:40:29.011Z,98336.91
2023-02-05T17:42:55.485Z,98332.66
2023-02-05T17:45:23.278Z,98336.91
2023-02-05T17:47:49.805Z,98334.38
2023-02-05T17:50:16.485Z,98336.06
2023-02-05T17:52:43.550Z,98340.28
2023-02-05T17:55:16.894Z,98346.19
2023-02-05T17:57:43.555Z,98347.00
2023-02-05T18:00:13.536Z,98346.97
2023-02-05T18:03:00.840Z,98352.84
2023-02-05T18:05:27.549Z,98351.13
2023-02-05T18:07:55.155Z,98349.41
2023-02-05T18:10:29.093Z,98354.47
2023-02-05T18:13:03.043Z,98346.00
2023-02-05T18:15:29.495Z,98341.75
2023-02-05T18:17:55.914Z,98345.19
2023-02-05T18:20:22.561Z,98351.88
2023-02-05T18:22:49.261Z,98351.88
2023-02-05T18:25:15.919Z,98361.22
2023-02-05T18:27:42.514Z,98351.94
2023-02-05T18:30:09.262Z,98367.97
2023-02-05T18:32:35.896Z,98361.22
2023-02-05T18:35:02.344Z,98355.31
2023-02-05T18:37:28.871Z,98368.06
2023-02-05T18:39:58.094Z,98366.41
2023-02-05T18:42:24.699Z,98368.06
2023-02-05T18:44:51.191Z,98366.44
2023-02-05T18:47:17.698Z,98365.56
2023-02-05T18:49:44.360Z,98368.91
2023-02-05T18:52:12.000Z,98365.63
2023-02-05T18:54:38.512Z,98362.28
2023-02-05T18:57:05.416Z,98360.63
2023-02-05T18:59:32.061Z,98364.03
2023-02-05T19:01:58.787Z,98358.97
2023-02-05T19:04:26.920Z,98367.41
2023-02-05T19:06:53.781Z,98364.91
2023-02-05T19:09:21.526Z,98364.91
2023-02-05T19:11:48.204Z,98369.97
2023-02-05T19:14:15.406Z,98357.34
2023-02-05T19:16:42.036Z,98363.25
2023-02-05T19:19:08.514Z,98358.22
2023-02-05T19:21:36.202Z,98359.06
2023-02-05T19:24:05.602Z,98364.19
2023-02-05T19:26:32.245Z,98364.22
2023-02-05T19:28:59.914Z,98365.00
2023-02-05T19:31:27.083Z,98367.59
2023-02-05T19:33:54.208Z,98376.88
2023-02-05T19:36:20.829Z,98376.91
2023-02-05T19:38:47.387Z,98367.63
2023-02-05T19:41:15.302Z,98368.50
2023-02-05T19:43:43.567Z,98372.75
2023-02-05T19:46:10.409Z,98373.69
2023-02-05T19:48:36.973Z,98377.03
2023-02-05T19:51:06.911Z,98371.22
2023-02-05T19:53:33.798Z,98364.53
2023-02-05T19:56:07.486Z,98373.81
2023-02-05T19:58:34.582Z,98368.78
2023-02-05T20:01:01.031Z,98367.13
2023-02-05T20:03:28.527Z,98364.63
2023-02-05T20:05:55.050Z,98363.00
2023-02-05T20:08:21.505Z,98378.97
2023-02-05T20:10:56.617Z,98386.59
2023-02-05T20:13:26.604Z,98385.75
2023-02-05T20:15:53.279Z,98379.03
2023-02-05T20:18:19.757Z,98382.41
2023-02-05T20:20:48.530Z,98383.25
2023-02-05T20:23:15.143Z,98385.78
2023-02-05T20:25:41.887Z,98379.06
2023-02-05T20:28:08.467Z,98384.91
2023-02-05T20:30:53.708Z,98384.94
2023-02-05T20:33:20.311Z,98391.63
2023-02-05T20:35:46.762Z,98383.25
2023-02-05T20:38:13.229Z,98384.09
2023-02-05T20:44:07.617Z,98391.66
2023-02-05T20:46:34.217Z,98395.03
2023-02-05T20:49:00.755Z,98413.53
2023-02-05T20:51:27.697Z,98410.16
2023-02-05T20:54:00.221Z,98403.44
2023-02-05T20:56:27.515Z,98410.16
2023-02-05T20:58:54.616Z,98413.53
2023-02-05T21:01:22.078Z,98416.88
2023-02-05T21:03:49.886Z,98419.41
2023-02-05T21:06:16.485Z,98426.13
2023-02-05T21:08:43.672Z,98426.16
2023-02-05T21:11:10.664Z,98430.34
2023-02-05T21:13:37.753Z,98426.16
2023-02-05T21:16:04.486Z,98432.88
2023-02-05T21:18:31.087Z,98419.44
2023-02-05T21:21:06.844Z,98430.38
2023-02-05T21:23:33.373Z,98414.41
2023-02-05T21:25:59.863Z,98415.25
2023-02-05T21:28:26.923Z,98410.22
2023-02-05T21:31:00.469Z,98418.66
2023-02-05T21:33:27.341Z,98419.47
2023-02-05T21:35:53.869Z,98423.69
2023-02-05T21:38:20.974Z,98421.16
2023-02-05T21:40:47.433Z,98421.19
2023-02-05T21:43:14.158Z,98426.22
2023-02-05T21:45:40.627Z,98427.91
2023-02-05T21:48:07.136Z,98434.63
2023-02-05T21:50:36.064Z,98436.31
2023-02-05T21:53:03.359Z,98459.81
2023-02-05T21:55:29.908Z,98448.91
2023-02-05T21:57:56.477Z,98458.13
2023-02-05T22:00:23.050Z,98458.16
2023-02-05T22:02:49.485Z,98475.78
2023-02-05T22:05:15.970Z,98485.91
2023-02-05T22:07:42.416Z,98490.94
2023-02-05T22:10:08.971Z,98474.13
2023-02-05T22:12:35.456Z,98481.69
2023-02-05T22:15:02.093Z,98471.59
2023-02-05T22:17:28.546Z,98469.09
2023-02-05T22:19:54.976Z,98481.72
2023-02-05T22:22:21.422Z,98485.06
2023-02-05T22:24:47.861Z,98487.59
2023-02-05T22:27:14.322Z,98489.25
2023-02-05T22:29:40.776Z,98487.56
2023-02-05T22:32:07.209Z,98490.09
2023-02-05T22:34:33.798Z,98489.25
2023-02-05T22:37:00.290Z,98483.38
2023-02-05T22:39:31.421Z,98486.72
2023-02-05T22:41:57.930Z,98493.44
2023-02-05T22:44:24.655Z,98487.53
2023-02-05T22:46:51.327Z,98485.00
2023-02-05T22:49:17.734Z,98474.91
2023-02-05T22:51:51.297Z,98481.66
2023-02-05T22:54:17.926Z,98486.69
2023-02-05T22:56:44.475Z,98486.72
2023-02-05T22:59:10.933Z,98492.59
2023-02-05T23:01:38.347Z,98492.56
2023-02-05T23:04:05.297Z,98490.06
2023-02-05T23:06:32.794Z,98491.72
2023-02-05T23:09:00.030Z,98495.94
2023-02-05T23:11:26.828Z,98493.41
2023-02-05T23:13:53.347Z,98499.28
2023-02-05T23:16:21.492Z,98503.53
2023-02-05T23:18:48.453Z,98495.94
2023-02-05T23:21:16.184Z,98503.53
2023-02-05T23:23:43.173Z,98502.66
2023-02-05T23:26:10.651Z,98511.94
2023-02-05T23:28:37.160Z,98522.84
2023-02-05T23:31:03.694Z,98521.19
2023-02-05T23:33:30.292Z,98516.94
2023-02-05T23:35:56.779Z,98511.88
2023-02-05T23:38:25.141Z,98511.00
2023-02-05T23:40:52.114Z,98503.41
2023-02-05T23:43:18.540Z,98506.78
2023-02-05T23:45:45.089Z,98495.84
2023-02-05T23:48:11.572Z,98507.63
2023-02-05T23:50:38.102Z,98491.66
2023-02-05T23:53:04.561Z,98491.66
2023-02-05T23:55:31.425Z,98496.75
2023-02-05T23:57:57.954Z,98486.66
